Groton, Connecticut
Current Conditions -  °F | °C
As of 6:56 PM on Monday 22 Dec 2014 (Local Time) from KGON Reporting Station
Overcast Overcast  
Wind Chill: 38°   Ceiling: 5000
Heat Index: 43°   Visibility: 8mi
Dew Point: 38°   Wind: 9mph
Humidity: 82%   Direction: 60°ENE
Pressure: 30.27"   Gusts: NA
Location:  41.35°N, 72.07°W
Report Text: KGON 222356Z 06008KT 8SM FEW025 OVC050 06/03 A3027 RMK AO2 SLP249 T00610033 10078 20061 57003
Loading
Personal Weather Stations






























Interactive Weather Map New forecast layout! Learn more

10-Day Weather Forecast

Advertisements
Track Severe Weather on mobile